Time;durP1;ratioP1;P1;durP2;ratioP2;P2;SDS_P1;SDS_P2;PMS_P1;PMS_P2;Temp;Humidity;BMP_temperature;BMP_pressure;BME280_temperature;BME280_humidity;BME280_pressure;Samples;Min_cycle;Max_cycle;Signal;HPM_P1;HPM_P2
2022/03/24 00:01:34;;;;;;;;;;;5.60;99.90;;;;;;5019253;28;19905;-61
2022/03/24 00:04:00;;;;;;;;;;;5.70;99.90;;;;;;5036810;28;19912;-61
2022/03/24 00:06:25;;;;;;;;;;;5.60;99.90;;;;;;5019470;28;19905;-61
2022/03/24 00:08:51;;;;;;;;;;;5.60;99.90;;;;;;5019042;28;19913;-61
2022/03/24 00:11:17;;;;;;;;;;;5.60;99.90;;;;;;5036800;28;19909;-61
2022/03/24 00:13:43;;;;;;;;;;;5.50;99.90;;;;;;5019294;28;20370;-61
2022/03/24 00:16:08;;;;;;;;;;;5.40;99.90;;;;;;5018917;28;19905;-61
2022/03/24 00:18:34;;;;;;;;;;;5.50;99.90;;;;;;5018950;28;19966;-61
2022/03/24 00:21:00;;;;;;;;;;;5.60;99.90;;;;;;5019673;28;19905;-61
2022/03/24 00:23:26;;;;;;;;;;;5.60;99.90;;;;;;5018704;28;19912;-61
2022/03/24 00:25:51;;;;;;;;;;;5.60;99.90;;;;;;5036493;28;19905;-61
2022/03/24 00:28:17;;;;;;;;;;;5.60;99.90;;;;;;5019162;28;19909;-61
2022/03/24 00:30:42;;;;;;;;;;;5.50;99.90;;;;;;5018972;28;19905;-61
2022/03/24 00:33:09;;;;;;;;;;;5.40;99.90;;;;;;5036514;28;19956;-61
2022/03/24 00:35:34;;;;;;;;;;;5.50;99.90;;;;;;5018516;28;19945;-61
2022/03/24 00:37:59;;;;;;;;;;;5.40;99.90;;;;;;5018583;28;20256;-61
2022/03/24 00:40:25;;;;;;;;;;;5.30;99.90;;;;;;5018513;28;19905;-61
2022/03/24 00:42:50;;;;;;;;;;;5.20;99.90;;;;;;5036044;28;19905;-61
2022/03/24 00:45:18;;;;;;;;;;;5.10;99.90;;;;;;5018480;28;19955;-61
2022/03/24 00:47:44;;;;;;;;;;;5.00;99.90;;;;;;5035961;28;19905;-61
2022/03/24 00:50:11;;;;;;;;;;;5.10;99.90;;;;;;5018291;28;19912;-61
2022/03/24 00:52:41;;;;;;;;;;;5.10;99.90;;;;;;5035897;28;20003;-61
2022/03/24 00:55:19;;;;;;;;;;;5.10;99.90;;;;;;5019067;28;19909;-61
2022/03/24 00:57:49;;;;;;;;;;;5.10;99.90;;;;;;5035767;28;19909;-61
2022/03/24 01:00:15;;;;;;;;;;;5.10;99.90;;;;;;5035882;28;19913;-61
2022/03/24 01:02:45;;;;;;;;;;;5.10;99.90;;;;;;5036103;28;19952;-61
2022/03/24 01:05:12;;;;;;;;;;;5.00;99.90;;;;;;5035828;28;19905;-61
2022/03/24 01:07:39;;;;;;;;;;;4.90;99.90;;;;;;5018179;28;19916;-61
2022/03/24 01:10:05;;;;;;;;;;;5.00;99.90;;;;;;5017864;28;19905;-61
2022/03/24 01:12:30;;;;;;;;;;;4.80;99.90;;;;;;5017809;28;19909;-61
2022/03/24 01:14:56;;;;;;;;;;;4.70;99.90;;;;;;5017746;28;19912;-61
2022/03/24 01:17:23;;;;;;;;;;;4.70;99.90;;;;;;5035712;28;19955;-61
2022/03/24 01:19:49;;;;;;;;;;;4.60;99.90;;;;;;5035867;28;19905;-61
2022/03/24 01:22:15;;;;;;;;;;;4.70;99.90;;;;;;5018098;28;19905;-61
2022/03/24 01:24:41;;;;;;;;;;;4.70;99.90;;;;;;5017692;28;19905;-62
2022/03/24 01:27:07;;;;;;;;;;;4.70;99.90;;;;;;5035642;28;19968;-61
2022/03/24 01:29:33;;;;;;;;;;;4.60;99.90;;;;;;5017691;28;19905;-62
2022/03/24 01:31:59;;;;;;;;;;;4.60;99.90;;;;;;5035413;28;19909;-62
2022/03/24 01:34:25;;;;;;;;;;;4.50;99.90;;;;;;5017570;28;19905;-61
2022/03/24 01:36:51;;;;;;;;;;;4.40;99.90;;;;;;5017989;28;19975;-61
2022/03/24 01:39:17;;;;;;;;;;;4.40;99.90;;;;;;5017445;28;20268;-61
2022/03/24 01:41:46;;;;;;;;;;;4.50;99.90;;;;;;5017972;28;19905;-61
2022/03/24 01:44:13;;;;;;;;;;;4.60;99.90;;;;;;5034969;28;19909;-61
2022/03/24 01:46:39;;;;;;;;;;;4.60;99.90;;;;;;5017128;28;19905;-61
2022/03/24 01:49:05;;;;;;;;;;;4.50;99.90;;;;;;5017894;28;19974;-61
2022/03/24 01:51:30;;;;;;;;;;;4.50;99.90;;;;;;5035073;28;20283;-61
2022/03/24 01:53:59;;;;;;;;;;;4.50;99.90;;;;;;5017060;28;19909;-61
2022/03/24 01:56:26;;;;;;;;;;;4.40;99.90;;;;;;5035011;28;20363;-61
2022/03/24 01:58:54;;;;;;;;;;;4.30;99.90;;;;;;5034752;28;20024;-61
2022/03/24 02:01:29;;;;;;;;;;;4.20;99.90;;;;;;5034890;28;19904;-62
2022/03/24 02:03:55;;;;;;;;;;;4.20;99.90;;;;;;5017044;28;19905;-61
2022/03/24 02:06:21;;;;;;;;;;;4.20;99.90;;;;;;5016826;28;19912;-62
2022/03/24 02:08:47;;;;;;;;;;;4.20;99.90;;;;;;5034596;28;19905;-61
2022/03/24 02:11:12;;;;;;;;;;;4.20;99.90;;;;;;5034766;28;19912;-61
2022/03/24 02:13:38;;;;;;;;;;;4.30;99.90;;;;;;5017084;28;19958;-60
2022/03/24 02:16:10;;;;;;;;;;;4.40;99.90;;;;;;5034686;28;20471;-61
2022/03/24 02:18:35;;;;;;;;;;;4.40;99.90;;;;;;5034445;28;19911;-62
2022/03/24 02:21:01;;;;;;;;;;;4.40;99.90;;;;;;5016571;28;19999;-62
2022/03/24 02:23:26;;;;;;;;;;;4.40;99.90;;;;;;5016904;28;20368;-61
2022/03/24 02:25:53;;;;;;;;;;;4.30;99.90;;;;;;5017692;28;19912;-62
2022/03/24 02:28:21;;;;;;;;;;;4.30;99.90;;;;;;5016854;28;19944;-61
2022/03/24 02:30:49;;;;;;;;;;;4.30;99.90;;;;;;5016515;28;19955;-61
2022/03/24 02:33:14;;;;;;;;;;;4.30;99.90;;;;;;5016334;28;19909;-61
2022/03/24 02:35:40;;;;;;;;;;;4.20;99.90;;;;;;5016673;28;19905;-62
2022/03/24 02:38:06;;;;;;;;;;;4.10;99.90;;;;;;5016647;28;19941;-62
2022/03/24 02:40:32;;;;;;;;;;;4.10;99.90;;;;;;5016809;28;20007;-62
2022/03/24 02:42:57;;;;;;;;;;;4.10;99.90;;;;;;5034045;28;19909;-62
2022/03/24 02:45:23;;;;;;;;;;;4.00;99.90;;;;;;5016227;28;19912;-62
2022/03/24 02:47:49;;;;;;;;;;;4.10;99.90;;;;;;5033943;28;19912;-62
2022/03/24 02:50:15;;;;;;;;;;;4.00;99.90;;;;;;5016228;28;19905;-61
2022/03/24 02:52:40;;;;;;;;;;;3.90;99.90;;;;;;5033877;28;19909;-62
2022/03/24 02:55:07;;;;;;;;;;;3.90;99.90;;;;;;5016250;28;19912;-61
2022/03/24 02:57:33;;;;;;;;;;;4.00;99.90;;;;;;5016453;28;19905;-61
2022/03/24 02:59:59;;;;;;;;;;;4.00;99.90;;;;;;5033820;28;19920;-62
2022/03/24 03:02:24;;;;;;;;;;;3.90;99.90;;;;;;5033777;28;19905;-62
2022/03/24 03:04:51;;;;;;;;;;;3.80;99.90;;;;;;5016783;28;19963;-62
2022/03/24 03:07:16;;;;;;;;;;;3.80;99.90;;;;;;5015890;28;20000;-61
2022/03/24 03:09:42;;;;;;;;;;;3.80;99.90;;;;;;5033691;28;19944;-62
2022/03/24 03:12:09;;;;;;;;;;;3.80;99.90;;;;;;5015826;28;19962;-61
2022/03/24 03:14:35;;;;;;;;;;;3.70;99.90;;;;;;5033710;28;19955;-62
2022/03/24 03:17:01;;;;;;;;;;;3.70;99.90;;;;;;5016196;28;19905;-62
2022/03/24 03:19:27;;;;;;;;;;;3.70;99.90;;;;;;5015888;28;19905;-61
2022/03/24 03:21:52;;;;;;;;;;;3.70;99.90;;;;;;5015891;28;19905;-62
2022/03/24 03:24:18;;;;;;;;;;;3.60;99.90;;;;;;5015982;28;19917;-61
2022/03/24 03:26:44;;;;;;;;;;;3.60;99.90;;;;;;5033462;28;19905;-61
2022/03/24 03:29:10;;;;;;;;;;;3.60;99.90;;;;;;5015801;28;19912;-62
2022/03/24 03:31:36;;;;;;;;;;;3.60;99.90;;;;;;5015839;28;20031;-61
2022/03/24 03:34:06;;;;;;;;;;;3.50;99.90;;;;;;5019488;28;20353;-62
2022/03/24 03:36:31;;;;;;;;;;;3.50;99.90;;;;;;5019874;28;19951;-62
2022/03/24 03:38:58;;;;;;;;;;;3.40;99.90;;;;;;5019580;28;19905;-62
2022/03/24 03:41:23;;;;;;;;;;;3.40;99.90;;;;;;5020551;28;19971;-62
2022/03/24 03:43:49;;;;;;;;;;;3.40;99.90;;;;;;5019635;28;19909;-62
2022/03/24 03:46:15;;;;;;;;;;;3.40;99.90;;;;;;5037178;28;19905;-62
2022/03/24 03:48:42;;;;;;;;;;;3.50;99.90;;;;;;5019453;28;19955;-62
2022/03/24 03:51:08;;;;;;;;;;;3.50;99.90;;;;;;5037211;28;20007;-62
2022/03/24 03:53:34;;;;;;;;;;;3.50;99.90;;;;;;5019396;28;19999;-62
2022/03/24 03:56:00;;;;;;;;;;;3.50;99.90;;;;;;5019488;28;19909;-62
2022/03/24 03:58:25;;;;;;;;;;;3.50;99.90;;;;;;5020149;28;19947;-62
2022/03/24 04:00:55;;;;;;;;;;;3.40;99.90;;;;;;5037542;28;19920;-60
2022/03/24 04:03:39;;;;;;;;;;;3.30;99.90;;;;;;5036985;28;19905;-62
2022/03/24 04:06:09;;;;;;;;;;;3.30;99.90;;;;;;5037020;28;19905;-62
2022/03/24 04:08:35;;;;;;;;;;;3.20;99.90;;;;;;5019770;28;20314;-62
2022/03/24 04:11:01;;;;;;;;;;;3.10;99.90;;;;;;5019369;28;19905;-61
2022/03/24 04:13:27;;;;;;;;;;;3.10;99.90;;;;;;5019338;28;19916;-63
2022/03/24 04:15:53;;;;;;;;;;;3.20;99.90;;;;;;5019288;28;19912;-62
2022/03/24 04:18:19;;;;;;;;;;;3.20;99.90;;;;;;5019895;28;19997;-61
2022/03/24 04:20:45;;;;;;;;;;;3.30;99.90;;;;;;5019308;28;19998;-61
2022/03/24 04:23:11;;;;;;;;;;;3.30;99.90;;;;;;5036598;28;19906;-61
2022/03/24 04:25:37;;;;;;;;;;;3.30;99.90;;;;;;5018843;28;19912;-62
2022/03/24 04:28:03;;;;;;;;;;;3.30;99.90;;;;;;5018801;28;19905;-61
2022/03/24 04:30:29;;;;;;;;;;;3.20;99.90;;;;;;5018802;28;19912;-62
2022/03/24 04:32:55;;;;;;;;;;;3.20;99.90;;;;;;5019123;28;19955;-62
2022/03/24 04:35:20;;;;;;;;;;;3.30;99.90;;;;;;5036390;28;19905;-63
2022/03/24 04:37:47;;;;;;;;;;;3.30;99.90;;;;;;5018645;28;20009;-62
2022/03/24 04:40:13;;;;;;;;;;;3.10;99.90;;;;;;5018689;28;19974;-62
2022/03/24 04:42:39;;;;;;;;;;;2.90;99.90;;;;;;5035749;28;20368;-62
2022/03/24 04:45:06;;;;;;;;;;;2.80;99.90;;;;;;5017503;28;19954;-62
2022/03/24 04:47:32;;;;;;;;;;;2.80;99.90;;;;;;5036123;28;20039;-60
2022/03/24 04:49:57;;;;;;;;;;;2.70;99.90;;;;;;5018409;28;19971;-62
2022/03/24 04:52:23;;;;;;;;;;;2.70;99.90;;;;;;5036257;28;19916;-62
2022/03/24 04:54:48;;;;;;;;;;;2.70;99.90;;;;;;5018584;28;19905;-62
2022/03/24 04:57:14;;;;;;;;;;;2.70;99.90;;;;;;5018549;28;19959;-59
2022/03/24 04:59:39;;;;;;;;;;;2.80;99.90;;;;;;5018360;28;20003;-62
2022/03/24 05:02:06;;;;;;;;;;;2.90;99.90;;;;;;5018080;28;19932;-61
2022/03/24 05:04:32;;;;;;;;;;;2.80;99.90;;;;;;5035778;28;20379;-62
2022/03/24 05:06:58;;;;;;;;;;;2.80;99.90;;;;;;5018876;28;19913;-61
2022/03/24 05:09:23;;;;;;;;;;;2.80;99.90;;;;;;5017969;28;19912;-62
2022/03/24 05:11:49;;;;;;;;;;;2.90;99.90;;;;;;5017935;28;19913;-60
2022/03/24 05:14:14;;;;;;;;;;;2.90;99.90;;;;;;5017859;28;19905;-62
2022/03/24 05:16:40;;;;;;;;;;;2.90;99.90;;;;;;5018703;28;19909;-60
2022/03/24 05:19:05;;;;;;;;;;;3.00;99.90;;;;;;5017740;28;19915;-61
2022/03/24 05:21:32;;;;;;;;;;;3.00;99.90;;;;;;5018135;28;19905;-61
2022/03/24 05:23:58;;;;;;;;;;;3.00;99.90;;;;;;5035424;28;19996;-60
2022/03/24 05:26:24;;;;;;;;;;;3.10;99.90;;;;;;5035311;28;19944;-62
2022/03/24 05:28:50;;;;;;;;;;;3.10;99.90;;;;;;5017723;28;19915;-61
2022/03/24 05:31:16;;;;;;;;;;;3.00;99.90;;;;;;5017945;28;20248;-62
2022/03/24 05:33:43;;;;;;;;;;;2.90;99.90;;;;;;5017497;28;19963;-62
2022/03/24 05:36:08;;;;;;;;;;;2.90;99.90;;;;;;5017536;28;20401;-62
2022/03/24 05:38:34;;;;;;;;;;;2.80;99.90;;;;;;5035236;28;19905;-62
2022/03/24 05:40:59;;;;;;;;;;;2.80;99.90;;;;;;5018248;28;20003;-62
2022/03/24 05:43:25;;;;;;;;;;;2.90;99.90;;;;;;5018315;28;19912;-62
2022/03/24 05:45:50;;;;;;;;;;;3.00;99.90;;;;;;5018425;28;19905;-62
2022/03/24 05:48:16;;;;;;;;;;;3.20;99.90;;;;;;5017651;28;19949;-62
2022/03/24 05:50:43;;;;;;;;;;;3.50;99.90;;;;;;5034968;28;19928;-63
2022/03/24 05:53:08;;;;;;;;;;;3.70;99.90;;;;;;5017046;28;19920;-62
2022/03/24 05:55:36;;;;;;;;;;;3.80;99.90;;;;;;5034554;28;19905;-63
2022/03/24 05:58:02;;;;;;;;;;;4.10;99.90;;;;;;5017481;28;19905;-62
2022/03/24 06:00:27;;;;;;;;;;;4.20;99.90;;;;;;5017293;28;19920;-62
2022/03/24 06:02:54;;;;;;;;;;;4.40;99.90;;;;;;5034711;28;20010;-62
2022/03/24 06:05:20;;;;;;;;;;;4.50;99.90;;;;;;5016984;28;19905;-62
2022/03/24 06:07:46;;;;;;;;;;;4.50;99.90;;;;;;5016903;28;19912;-62
2022/03/24 06:10:12;;;;;;;;;;;4.50;99.90;;;;;;5016930;28;19905;-62
2022/03/24 06:12:37;;;;;;;;;;;4.70;99.90;;;;;;5034455;28;20317;-62
2022/03/24 06:15:04;;;;;;;;;;;5.00;99.90;;;;;;5016828;28;19912;-62
2022/03/24 06:17:30;;;;;;;;;;;5.50;99.90;;;;;;5016668;28;19908;-62
2022/03/24 06:19:55;;;;;;;;;;;6.10;99.90;;;;;;5034433;28;19959;-63
2022/03/24 06:22:21;;;;;;;;;;;6.90;99.90;;;;;;5017498;28;19909;-60
2022/03/24 06:24:46;;;;;;;;;;;7.60;99.90;;;;;;5034979;28;19995;-60
2022/03/24 06:27:12;;;;;;;;;;;8.30;99.90;;;;;;5016846;28;20000;-61
2022/03/24 06:29:38;;;;;;;;;;;9.00;99.90;;;;;;5017119;28;19909;-60
2022/03/24 06:32:05;;;;;;;;;;;9.80;99.90;;;;;;5034158;28;19909;-61
2022/03/24 06:34:31;;;;;;;;;;;10.30;99.90;;;;;;5016573;28;19905;-61
2022/03/24 06:36:58;;;;;;;;;;;10.80;99.90;;;;;;5016969;28;19929;-61
2022/03/24 06:39:23;;;;;;;;;;;11.30;99.90;;;;;;5034460;28;19979;-61
2022/03/24 06:41:49;;;;;;;;;;;11.80;99.90;;;;;;5016435;28;20333;-61
2022/03/24 06:44:15;;;;;;;;;;;12.50;99.90;;;;;;5034123;28;19984;-60
2022/03/24 06:46:40;;;;;;;;;;;12.70;99.90;;;;;;5016600;28;19912;-61
2022/03/24 06:49:06;;;;;;;;;;;13.00;99.90;;;;;;5034380;28;19905;-60
2022/03/24 06:51:32;;;;;;;;;;;13.70;99.90;;;;;;5016609;28;19905;-60
2022/03/24 06:53:58;;;;;;;;;;;14.30;99.90;;;;;;5016696;28;19909;-61
2022/03/24 06:56:23;;;;;;;;;;;14.90;99.00;;;;;;5016628;28;19932;-61
2022/03/24 06:58:49;;;;;;;;;;;15.60;96.70;;;;;;5034201;28;19936;-61
2022/03/24 07:01:15;;;;;;;;;;;15.70;92.90;;;;;;5017121;28;19995;-58
2022/03/24 07:03:41;;;;;;;;;;;15.50;92.90;;;;;;5016191;28;19905;-59
2022/03/24 07:06:07;;;;;;;;;;;16.40;91.70;;;;;;5033558;28;19912;-61
2022/03/24 07:08:32;;;;;;;;;;;16.50;90.20;;;;;;5015520;28;19960;-61
2022/03/24 07:10:58;;;;;;;;;;;17.20;89.70;;;;;;5016888;28;19909;-60
2022/03/24 07:13:24;;;;;;;;;;;17.70;85.30;;;;;;5033670;28;19952;-61
2022/03/24 07:15:49;;;;;;;;;;;18.20;84.10;;;;;;5016053;28;19927;-61
2022/03/24 07:18:15;;;;;;;;;;;18.60;81.10;;;;;;5033999;28;19972;-61
2022/03/24 07:20:41;;;;;;;;;;;19.10;81.10;;;;;;5016719;28;19905;-61
2022/03/24 07:23:07;;;;;;;;;;;19.20;76.00;;;;;;5033638;28;19905;-61
2022/03/24 07:25:33;;;;;;;;;;;20.00;75.60;;;;;;5016792;28;19984;-60
2022/03/24 07:27:59;;;;;;;;;;;19.70;74.00;;;;;;5015569;28;19909;-61
2022/03/24 07:30:25;;;;;;;;;;;19.50;72.50;;;;;;5015726;28;19992;-60
2022/03/24 07:32:51;;;;;;;;;;;19.80;71.60;;;;;;5015847;28;20016;-61
2022/03/24 07:35:18;;;;;;;;;;;20.50;70.00;;;;;;5033726;28;19948;-60
2022/03/24 07:37:44;;;;;;;;;;;20.20;68.00;;;;;;5015773;28;19912;-60
2022/03/24 07:40:10;;;;;;;;;;;20.00;68.50;;;;;;5015821;28;19912;-61
2022/03/24 07:42:36;;;;;;;;;;;20.30;68.80;;;;;;5015830;28;19905;-60
2022/03/24 07:45:01;;;;;;;;;;;21.10;68.10;;;;;;5016079;28;19905;-61
2022/03/24 07:47:27;;;;;;;;;;;21.70;66.70;;;;;;5015590;28;19905;-61
2022/03/24 07:49:52;;;;;;;;;;;22.80;65.20;;;;;;5015830;28;19905;-60
2022/03/24 07:52:18;;;;;;;;;;;23.30;63.40;;;;;;5033202;28;19920;-62
2022/03/24 07:54:48;;;;;;;;;;;23.60;59.20;;;;;;5015711;28;19905;-60
2022/03/24 07:57:13;;;;;;;;;;;22.50;58.80;;;;;;5033308;28;19912;-60
2022/03/24 07:59:39;;;;;;;;;;;21.50;60.30;;;;;;5015794;28;20364;-59
2022/03/24 08:02:05;;;;;;;;;;;21.70;60.40;;;;;;5016455;28;20370;-61
2022/03/24 08:04:30;;;;;;;;;;;22.60;64.70;;;;;;5015802;28;20000;-60
2022/03/24 08:06:56;;;;;;;;;;;23.20;57.50;;;;;;5016409;28;19928;-58
2022/03/24 08:09:21;;;;;;;;;;;22.80;57.00;;;;;;5033488;28;19905;-60
2022/03/24 08:11:48;;;;;;;;;;;23.20;58.80;;;;;;5015744;28;20344;-61
2022/03/24 08:14:13;;;;;;;;;;;24.30;57.60;;;;;;5033222;28;19913;-61
2022/03/24 08:16:39;;;;;;;;;;;24.90;56.60;;;;;;5015398;28;19905;-61
2022/03/24 08:19:05;;;;;;;;;;;24.90;54.90;;;;;;5017389;28;19998;-61
2022/03/24 08:21:30;;;;;;;;;;;25.10;57.20;;;;;;5018957;28;19951;-60
2022/03/24 08:23:56;;;;;;;;;;;24.80;55.30;;;;;;5018909;28;19905;-61
2022/03/24 08:26:22;;;;;;;;;;;25.70;55.70;;;;;;5018809;28;19905;-61
2022/03/24 08:28:47;;;;;;;;;;;25.80;52.60;;;;;;5036908;28;19948;-61
2022/03/24 08:31:13;;;;;;;;;;;26.50;54.30;;;;;;5019227;28;19963;-61
2022/03/24 08:33:39;;;;;;;;;;;27.30;52.10;;;;;;5036721;28;19920;-61
2022/03/24 08:36:04;;;;;;;;;;;27.20;51.40;;;;;;5018725;28;19912;-61
2022/03/24 08:38:30;;;;;;;;;;;27.40;51.80;;;;;;5018630;28;19932;-61
2022/03/24 08:40:55;;;;;;;;;;;27.90;50.40;;;;;;5036649;28;19905;-61
2022/03/24 08:43:21;;;;;;;;;;;28.50;49.40;;;;;;5036364;28;19955;-61
2022/03/24 08:45:46;;;;;;;;;;;29.40;49.50;;;;;;5018473;28;19966;-61
2022/03/24 08:48:12;;;;;;;;;;;29.50;47.20;;;;;;5036236;28;19911;-61
2022/03/24 08:50:37;;;;;;;;;;;28.30;48.20;;;;;;5018412;28;19912;-61
2022/03/24 08:53:04;;;;;;;;;;;28.60;48.40;;;;;;5018368;28;19908;-61
2022/03/24 08:55:29;;;;;;;;;;;28.90;47.40;;;;;;5018506;28;20370;-61
2022/03/24 08:57:55;;;;;;;;;;;28.80;46.90;;;;;;5018056;28;19905;-60
2022/03/24 09:00:21;;;;;;;;;;;29.70;47.40;;;;;;5018978;28;19961;-61
2022/03/24 09:02:48;;;;;;;;;;;30.10;46.00;;;;;;5018247;28;19912;-61
2022/03/24 09:05:14;;;;;;;;;;;30.50;48.30;;;;;;5018218;28;19987;-61
2022/03/24 09:07:39;;;;;;;;;;;31.00;45.60;;;;;;5018432;28;19949;-60
2022/03/24 09:10:06;;;;;;;;;;;31.60;44.20;;;;;;5035886;28;19953;-60
2022/03/24 09:12:33;;;;;;;;;;;31.10;43.80;;;;;;5035797;28;19971;-60
2022/03/24 09:14:58;;;;;;;;;;;30.90;43.70;;;;;;5017966;28;19939;-60
2022/03/24 09:17:24;;;;;;;;;;;30.90;43.60;;;;;;5035691;28;19905;-61
2022/03/24 09:19:49;;;;;;;;;;;31.30;43.70;;;;;;5018190;28;20347;-61
2022/03/24 09:22:15;;;;;;;;;;;33.10;42.70;;;;;;5018182;28;19905;-60
2022/03/24 09:24:40;;;;;;;;;;;32.90;40.20;;;;;;5017806;28;19962;-60
2022/03/24 09:27:06;;;;;;;;;;;32.30;41.30;;;;;;5035352;28;19935;-61
2022/03/24 09:29:32;;;;;;;;;;;33.50;40.20;;;;;;5035070;28;19905;-60
2022/03/24 09:31:58;;;;;;;;;;;33.40;40.00;;;;;;5035035;28;19911;-60
2022/03/24 09:34:25;;;;;;;;;;;32.70;40.10;;;;;;5018038;28;19905;-60
2022/03/24 09:36:50;;;;;;;;;;;32.00;38.40;;;;;;5017602;28;19905;-60
2022/03/24 09:39:16;;;;;;;;;;;32.30;39.00;;;;;;5035289;28;19912;-60
2022/03/24 09:41:46;;;;;;;;;;;32.40;39.90;;;;;;5017828;28;19912;-60
2022/03/24 09:44:11;;;;;;;;;;;32.40;38.10;;;;;;5035138;28;20265;-60
2022/03/24 09:46:38;;;;;;;;;;;32.70;38.20;;;;;;5035196;28;19912;-60
2022/03/24 09:49:03;;;;;;;;;;;32.80;38.30;;;;;;5017243;28;19905;-60
2022/03/24 09:51:30;;;;;;;;;;;32.50;37.70;;;;;;5018163;28;19913;-60
2022/03/24 09:53:56;;;;;;;;;;;30.90;38.20;;;;;;5035040;28;19908;-60
2022/03/24 09:56:21;;;;;;;;;;;30.30;38.00;;;;;;5017472;28;19916;-60
2022/03/24 09:58:48;;;;;;;;;;;30.50;40.90;;;;;;5034843;28;19925;-60
2022/03/24 10:01:13;;;;;;;;;;;31.20;38.10;;;;;;5018107;28;19909;-60
2022/03/24 10:03:39;;;;;;;;;;;32.50;37.90;;;;;;5017173;28;19932;-60
2022/03/24 10:06:07;;;;;;;;;;;31.70;37.30;;;;;;5017529;28;20008;-60
2022/03/24 10:08:33;;;;;;;;;;;30.70;37.80;;;;;;5034738;28;19909;-60
2022/03/24 10:11:00;;;;;;;;;;;30.40;38.80;;;;;;5017397;28;19909;-60
2022/03/24 10:13:41;;;;;;;;;;;30.60;38.40;;;;;;5034580;28;19909;-60
2022/03/24 10:16:07;;;;;;;;;;;29.90;38.50;;;;;;5017081;28;19927;-60
2022/03/24 10:18:33;;;;;;;;;;;30.10;38.70;;;;;;5017145;28;19912;-60
2022/03/24 10:21:05;;;;;;;;;;;29.50;37.70;;;;;;5016813;28;19909;-60
2022/03/24 10:23:34;;;;;;;;;;;28.40;38.40;;;;;;5016785;28;19905;-59
2022/03/24 10:26:03;;;;;;;;;;;26.40;39.20;;;;;;5034408;28;19908;-60
2022/03/24 10:28:29;;;;;;;;;;;25.80;39.40;;;;;;5034385;28;19945;-60
2022/03/24 10:30:58;;;;;;;;;;;25.90;40.50;;;;;;5034376;28;19948;-60
2022/03/24 10:33:27;;;;;;;;;;;26.20;40.40;;;;;;5016631;28;19948;-60
2022/03/24 10:36:09;;;;;;;;;;;25.80;41.30;;;;;;5034180;28;19909;-60
2022/03/24 10:38:36;;;;;;;;;;;25.40;40.90;;;;;;5034217;28;19905;-60
2022/03/24 10:41:20;;;;;;;;;;;25.30;42.00;;;;;;5016569;28;19928;-60
2022/03/24 10:43:46;;;;;;;;;;;24.90;41.90;;;;;;5034046;28;20253;-60
2022/03/24 10:46:18;;;;;;;;;;;24.80;42.50;;;;;;5033979;28;19996;-60
2022/03/24 10:48:45;;;;;;;;;;;24.80;42.60;;;;;;5034390;28;19948;-59
2022/03/24 10:51:10;;;;;;;;;;;24.80;42.20;;;;;;5034031;28;19905;-59
2022/03/24 10:53:40;;;;;;;;;;;24.80;42.80;;;;;;5016296;28;19909;-60
2022/03/24 10:56:07;;;;;;;;;;;24.60;43.20;;;;;;5034340;28;19909;-59
2022/03/24 10:58:36;;;;;;;;;;;24.40;43.10;;;;;;5016234;28;19905;-60
2022/03/24 11:01:03;;;;;;;;;;;24.30;43.10;;;;;;5016352;28;19909;-59
2022/03/24 11:03:29;;;;;;;;;;;23.90;44.10;;;;;;5016436;28;19909;-59
2022/03/24 11:06:04;;;;;;;;;;;23.90;44.60;;;;;;5033816;28;19992;-59
2022/03/24 11:08:30;;;;;;;;;;;23.90;44.60;;;;;;5016135;28;20401;-59
2022/03/24 11:10:55;;;;;;;;;;;23.60;43.60;;;;;;5016099;28;19905;-58
2022/03/24 11:13:27;;;;;;;;;;;23.30;45.40;;;;;;5016288;28;19955;-60
2022/03/24 11:15:53;;;;;;;;;;;23.20;45.40;;;;;;5015982;28;19905;-60
2022/03/24 11:18:19;;;;;;;;;;;22.80;46.00;;;;;;5016287;28;20394;-60
2022/03/24 11:20:46;;;;;;;;;;;22.70;45.80;;;;;;5016069;28;19905;-58
2022/03/24 11:23:21;;;;;;;;;;;22.60;46.00;;;;;;5016022;28;19905;-58
2022/03/24 11:25:46;;;;;;;;;;;22.60;45.70;;;;;;5016280;28;19905;-60
2022/03/24 11:28:14;;;;;;;;;;;22.40;46.40;;;;;;5016285;28;20305;-57
2022/03/24 11:30:40;;;;;;;;;;;22.30;47.30;;;;;;5015879;28;19959;-59
2022/03/24 11:33:07;;;;;;;;;;;22.30;46.80;;;;;;5033458;28;19916;-59
2022/03/24 11:35:34;;;;;;;;;;;22.20;46.60;;;;;;5015885;28;19909;-59
2022/03/24 11:38:01;;;;;;;;;;;22.00;46.90;;;;;;5016330;28;19916;-60
2022/03/24 11:40:28;;;;;;;;;;;21.80;47.10;;;;;;5033642;28;20364;-59
2022/03/24 11:42:56;;;;;;;;;;;21.50;47.20;;;;;;5015855;28;19905;-60
2022/03/24 11:45:27;;;;;;;;;;;21.50;47.10;;;;;;5033723;28;19905;-60
2022/03/24 11:47:55;;;;;;;;;;;21.40;48.40;;;;;;5033419;28;19905;-60
2022/03/24 11:50:34;;;;;;;;;;;21.20;48.70;;;;;;5033366;28;19905;-60
2022/03/24 11:53:15;;;;;;;;;;;21.30;48.70;;;;;;5033984;28;20059;-60
2022/03/24 11:55:44;;;;;;;;;;;21.30;48.00;;;;;;5019481;28;19916;-60
2022/03/24 11:58:10;;;;;;;;;;;21.30;47.10;;;;;;5019343;28;19912;-60
2022/03/24 12:00:37;;;;;;;;;;;21.30;48.60;;;;;;5019255;28;19913;-58
2022/03/24 12:03:22;;;;;;;;;;;21.20;48.30;;;;;;5019615;28;19909;-60
2022/03/24 12:05:53;;;;;;;;;;;21.00;47.90;;;;;;5036740;28;19912;-60
2022/03/24 12:08:26;;;;;;;;;;;20.80;49.20;;;;;;5037366;28;19962;-60
2022/03/24 12:10:51;;;;;;;;;;;20.90;47.80;;;;;;5036852;28;19992;-60
2022/03/24 12:13:19;;;;;;;;;;;20.80;49.90;;;;;;5019544;28;19999;-60
2022/03/24 12:15:44;;;;;;;;;;;20.50;49.90;;;;;;5019913;28;19932;-60
2022/03/24 12:18:15;;;;;;;;;;;20.60;50.60;;;;;;5019610;28;19905;-60
2022/03/24 12:20:42;;;;;;;;;;;20.80;50.70;;;;;;5036866;28;19905;-60
2022/03/24 12:23:08;;;;;;;;;;;20.70;49.00;;;;;;5018945;28;19905;-59
2022/03/24 12:25:34;;;;;;;;;;;20.40;48.30;;;;;;5018933;28;20278;-58
2022/03/24 12:28:03;;;;;;;;;;;20.40;48.40;;;;;;5018851;28;19905;-60
2022/03/24 12:30:42;;;;;;;;;;;20.40;48.90;;;;;;5019705;28;19912;-56
2022/03/24 12:33:12;;;;;;;;;;;20.20;47.80;;;;;;5018700;28;19916;-59
2022/03/24 12:35:42;;;;;;;;;;;20.30;48.00;;;;;;5018950;28;19911;-57
2022/03/24 12:38:41;;;;;;;;;;;20.40;49.40;;;;;;5036727;28;19905;-60
2022/03/24 12:41:06;;;;;;;;;;;20.50;49.40;;;;;;4986961;28;19908;-60
2022/03/24 12:43:41;;;;;;;;;;;20.60;49.00;;;;;;5018979;28;19905;-59
2022/03/24 12:46:22;;;;;;;;;;;20.50;48.20;;;;;;5019228;28;19999;-60
2022/03/24 12:48:48;;;;;;;;;;;20.50;48.30;;;;;;5018540;28;19928;-60
2022/03/24 12:51:21;;;;;;;;;;;20.50;47.80;;;;;;5018616;28;19905;-59
2022/03/24 12:53:54;;;;;;;;;;;20.50;48.30;;;;;;5036046;28;19909;-59
2022/03/24 12:56:22;;;;;;;;;;;20.40;47.70;;;;;;5036312;28;19916;-59
2022/03/24 12:58:55;;;;;;;;;;;20.40;48.40;;;;;;5035955;28;19960;-60
2022/03/24 13:01:21;;;;;;;;;;;20.40;48.70;;;;;;5018733;28;19979;-60
2022/03/24 13:03:53;;;;;;;;;;;20.50;49.50;;;;;;5018318;28;20318;-61
2022/03/24 13:06:18;;;;;;;;;;;20.50;50.60;;;;;;5016996;28;19954;-58
2022/03/24 13:08:45;;;;;;;;;;;20.50;48.70;;;;;;5035885;28;20004;-59
2022/03/24 13:11:12;;;;;;;;;;;20.60;49.30;;;;;;5019454;28;19949;-60
2022/03/24 13:14:04;;;;;;;;;;;20.40;48.10;;;;;;5018486;28;19909;-58
2022/03/24 13:16:30;;;;;;;;;;;20.40;47.80;;;;;;5015600;28;19909;-58
2022/03/24 13:18:55;;;;;;;;;;;20.20;47.30;;;;;;5017899;28;19905;-59
2022/03/24 13:21:24;;;;;;;;;;;19.90;47.70;;;;;;5018739;28;19960;-59
2022/03/24 13:23:52;;;;;;;;;;;19.60;48.20;;;;;;5018653;28;19909;-58
2022/03/24 13:26:19;;;;;;;;;;;19.60;49.70;;;;;;5017772;28;19905;-60
2022/03/24 13:28:46;;;;;;;;;;;19.70;49.30;;;;;;5035747;28;19913;-60
2022/03/24 13:31:12;;;;;;;;;;;19.70;49.30;;;;;;5017996;28;20340;-60
2022/03/24 13:33:37;;;;;;;;;;;19.90;49.70;;;;;;5017567;28;19936;-58
2022/03/24 13:36:03;;;;;;;;;;;19.90;48.00;;;;;;5017911;28;19905;-60
2022/03/24 13:38:29;;;;;;;;;;;19.70;47.90;;;;;;5017647;28;19905;-60
2022/03/24 13:40:56;;;;;;;;;;;19.60;48.20;;;;;;5035583;28;19951;-60
2022/03/24 13:43:22;;;;;;;;;;;19.40;47.90;;;;;;5017430;28;20368;-60
2022/03/24 13:45:49;;;;;;;;;;;19.30;48.30;;;;;;5017294;28;19905;-60
2022/03/24 13:48:16;;;;;;;;;;;19.20;48.50;;;;;;5017392;28;19941;-60
2022/03/24 13:50:44;;;;;;;;;;;19.20;48.60;;;;;;5017308;28;19905;-59
2022/03/24 13:53:13;;;;;;;;;;;19.10;48.20;;;;;;5017083;28;20390;-59
2022/03/24 13:55:39;;;;;;;;;;;19.00;49.40;;;;;;5017241;28;19905;-60
2022/03/24 13:58:12;;;;;;;;;;;19.10;48.90;;;;;;5035219;28;19944;-60
2022/03/24 14:00:39;;;;;;;;;;;19.20;49.20;;;;;;5017564;28;19913;-60
2022/03/24 14:03:10;;;;;;;;;;;19.30;49.10;;;;;;5034788;28;19905;-60
2022/03/24 14:05:43;;;;;;;;;;;19.40;48.10;;;;;;5017332;28;19909;-60
2022/03/24 14:08:09;;;;;;;;;;;19.40;46.30;;;;;;5034754;28;19905;-59
2022/03/24 14:10:48;;;;;;;;;;;19.50;45.10;;;;;;5017074;28;19951;-59
2022/03/24 14:13:14;;;;;;;;;;;19.50;45.40;;;;;;5017200;28;19909;-60
2022/03/24 14:15:40;;;;;;;;;;;19.50;45.50;;;;;;5017519;28;19987;-60
2022/03/24 14:18:19;;;;;;;;;;;19.50;45.40;;;;;;5034576;28;19941;-59
2022/03/24 14:20:46;;;;;;;;;;;19.50;45.00;;;;;;5016895;28;20310;-57
2022/03/24 14:23:28;;;;;;;;;;;19.50;46.70;;;;;;5034592;28;19955;-59